Rhinecliff, New York
Current Conditions -  °F | °C
As of 10:53 AM on Friday 31 Oct 2014 (Local Time) from KPOU Reporting Station
Broken Clouds Broken Clouds  
Wind Chill: 45°   Ceiling: 5000
Heat Index: 45°   Visibility: 10mi
Dew Point: 37°   Wind: 3mph
Humidity: 74%   Direction: 30°NNE
Pressure: 30.01"   Gusts: NA
Location:  41.92°N, 73.95°W
Report Text: KPOU 311453Z 03003KT 10SM BKN050 07/03 A3001 RMK AO2 SLP159 T00720028 58010
Loading
Personal Weather Stations






























Interactive Weather Map
Tropical Storm Tracking
New forecast layout! Learn more

10-Day Weather Forecast

Advertisements
Track Severe Weather on mobile